Time;durP1;ratioP1;P1;durP2;ratioP2;P2;SDS_P1;SDS_P2;PMS_P1;PMS_P2;Temp;Humidity;BMP_temperature;BMP_pressure;BME280_temperature;BME280_humidity;BME280_pressure;Samples;Min_cycle;Max_cycle;Signal;HPM_P1;HPM_P2
2023/05/20 00:00:48;;;;;;;15.60;1.88;;;37.10;33.30;;;;;;4934002;29;20479;-62
2023/05/20 00:03:16;;;;;;;5.75;1.92;;;37.00;33.40;;;;;;4929654;29;20023;-69
2023/05/20 00:05:42;;;;;;;7.85;1.98;;;37.00;33.50;;;;;;4931182;29;20028;-67
2023/05/20 00:08:09;;;;;;;7.07;1.90;;;37.10;33.80;;;;;;4930990;29;20107;-68
2023/05/20 00:10:36;;;;;;;10.55;1.88;;;37.00;33.40;;;;;;4922891;29;20031;-65
2023/05/20 00:13:02;;;;;;;12.93;3.45;;;36.90;33.40;;;;;;4925449;29;20091;-57
2023/05/20 00:15:29;;;;;;;11.02;2.00;;;36.90;33.30;;;;;;4928593;29;20050;-60
2023/05/20 00:17:56;;;;;;;16.85;1.60;;;36.80;33.30;;;;;;4928145;29;20086;-61
2023/05/20 00:20:23;;;;;;;6.63;1.70;;;36.70;33.30;;;;;;4927633;29;20032;-62
2023/05/20 00:22:49;;;;;;;9.55;1.58;;;36.50;33.90;;;;;;4928005;29;20553;-63
2023/05/20 00:25:16;;;;;;;6.82;1.70;;;36.50;33.40;;;;;;4910316;29;20072;-62
2023/05/20 00:27:42;;;;;;;8.55;1.80;;;36.50;33.20;;;;;;4904583;29;20035;-56
2023/05/20 00:30:09;;;;;;;17.05;1.92;;;36.60;33.20;;;;;;4906900;29;20028;-58
2023/05/20 00:32:36;;;;;;;8.75;1.88;;;36.70;33.30;;;;;;4910305;29;20091;-59
2023/05/20 00:35:03;;;;;;;10.10;1.50;;;36.60;33.30;;;;;;4910767;29;20074;-60
2023/05/20 00:37:29;;;;;;;14.82;2.40;;;36.50;33.30;;;;;;4910558;29;20032;-59
2023/05/20 00:39:56;;;;;;;8.65;2.00;;;36.40;33.50;;;;;;4908379;29;20075;-58
2023/05/20 00:42:27;;;;;;;10.32;1.60;;;36.40;33.90;;;;;;4909329;29;20963;-58
2023/05/20 00:44:54;;;;;;;8.48;1.63;;;36.40;33.90;;;;;;4912515;29;20040;-60
2023/05/20 00:47:29;;;;;;;13.45;1.83;;;36.40;33.90;;;;;;4910296;29;20028;-60
2023/05/20 00:49:56;;;;;;;7.40;1.60;;;36.30;33.90;;;;;;4913960;29;20051;-59
2023/05/20 00:52:23;;;;;;;14.00;2.63;;;36.20;34.10;;;;;;4909606;29;20514;-61
2023/05/20 00:54:50;;;;;;;10.32;1.80;;;36.20;34.70;;;;;;4908536;29;20451;-55
2023/05/20 00:57:18;;;;;;;11.65;2.30;;;36.00;35.60;;;;;;4908547;29;20072;-61
2023/05/20 00:59:44;;;;;;;14.48;1.80;;;35.90;35.90;;;;;;4910535;29;20029;-59
2023/05/20 01:02:11;;;;;;;14.18;2.10;;;36.00;36.00;;;;;;4908432;29;20668;-57
2023/05/20 01:04:37;;;;;;;13.25;2.97;;;35.90;36.30;;;;;;4909728;29;20426;-57
2023/05/20 01:07:05;;;;;;;13.90;2.35;;;35.90;36.50;;;;;;4910779;29;20031;-60
2023/05/20 01:09:33;;;;;;;11.02;2.05;;;35.70;36.60;;;;;;4912416;29;20478;-57
2023/05/20 01:12:08;;;;;;;8.13;2.17;;;35.80;36.60;;;;;;4909689;29;20057;-58
2023/05/20 01:14:42;;;;;;;12.20;2.00;;;35.60;36.60;;;;;;4911152;29;20028;-59
2023/05/20 01:17:11;;;;;;;22.27;2.45;;;35.50;36.70;;;;;;4908962;29;20153;-59
2023/05/20 01:19:47;;;;;;;16.50;2.13;;;35.40;36.70;;;;;;4910193;29;20036;-56
2023/05/20 01:22:15;;;;;;;11.05;2.28;;;35.30;36.90;;;;;;4909910;29;20024;-60
2023/05/20 01:24:48;;;;;;;13.55;2.75;;;35.30;36.90;;;;;;4907997;29;20594;-58
2023/05/20 01:27:14;;;;;;;20.33;2.70;;;35.30;36.90;;;;;;4908346;29;20100;-61
2023/05/20 01:29:42;;;;;;;20.63;2.45;;;35.30;36.80;;;;;;4903172;29;20024;-56
2023/05/20 01:32:18;;;;;;;33.55;2.45;;;35.20;36.70;;;;;;4908502;29;20043;-57
2023/05/20 01:34:46;;;;;;;34.70;3.47;;;35.20;36.60;;;;;;4908024;29;20083;-61
2023/05/20 01:37:13;;;;;;;23.70;2.88;;;35.20;36.80;;;;;;4907899;29;20447;-59
2023/05/20 01:39:41;;;;;;;16.60;2.75;;;35.10;37.10;;;;;;4909509;29;20403;-56
2023/05/20 01:42:12;;;;;;;15.07;3.30;;;35.00;37.70;;;;;;4909486;29;20394;-56
2023/05/20 01:44:39;;;;;;;15.82;2.88;;;35.30;37.80;;;;;;4909632;29;20417;-60
2023/05/20 01:47:06;;;;;;;11.48;2.55;;;35.40;38.00;;;;;;4909846;29;20063;-58
2023/05/20 01:49:32;;;;;;;22.27;3.88;;;35.00;38.80;;;;;;4908753;29;20040;-55
2023/05/20 01:51:58;;;;;;;15.90;3.92;;;34.90;39.20;;;;;;4909479;29;20384;-57
2023/05/20 01:54:25;;;;;;;17.05;3.67;;;34.90;39.00;;;;;;4909380;29;20036;-55
2023/05/20 01:56:52;;;;;;;21.08;4.72;;;35.10;38.90;;;;;;4908688;29;20395;-59
2023/05/20 01:59:18;;;;;;;24.23;4.75;;;35.10;38.80;;;;;;4908811;29;20032;-58
2023/05/20 02:01:45;;;;;;;27.77;3.70;;;35.20;39.00;;;;;;4908089;29;20040;-58
2023/05/20 02:04:11;;;;;;;15.32;3.40;;;34.80;39.40;;;;;;4907636;29;20115;-58
2023/05/20 02:06:37;;;;;;;13.55;2.60;;;34.50;39.90;;;;;;4907692;29;20024;-62
2023/05/20 02:09:04;;;;;;;18.58;3.00;;;34.20;40.80;;;;;;4911501;29;20035;-62
2023/05/20 02:11:30;;;;;;;15.88;3.15;;;34.00;41.50;;;;;;4909595;29;20393;-61
2023/05/20 02:13:57;;;;;;;18.38;3.35;;;33.80;41.90;;;;;;4906385;29;20181;-60
2023/05/20 02:16:23;;;;;;;19.05;3.10;;;33.60;42.60;;;;;;4907651;29;20037;-56
2023/05/20 02:18:51;;;;;;;23.45;3.55;;;33.50;43.20;;;;;;4908242;29;20083;-61
2023/05/20 02:21:18;;;;;;;18.88;3.47;;;33.40;43.40;;;;;;4908558;29;20518;-60
2023/05/20 02:23:44;;;;;;;21.50;3.10;;;33.20;43.90;;;;;;4912578;29;20074;-61
2023/05/20 02:26:11;;;;;;;18.52;3.55;;;33.20;44.20;;;;;;4907079;29;20125;-61
2023/05/20 02:28:42;;;;;;;14.55;3.47;;;33.00;44.60;;;;;;4901832;29;20065;-60
2023/05/20 02:31:08;;;;;;;13.95;2.90;;;33.00;45.00;;;;;;4903157;29;20390;-59
2023/05/20 02:33:35;;;;;;;19.73;3.22;;;32.90;45.40;;;;;;4905619;29;20118;-60
2023/05/20 02:36:01;;;;;;;15.57;2.97;;;32.80;45.50;;;;;;4908713;29;20036;-58
2023/05/20 02:38:28;;;;;;;17.33;5.63;;;32.70;45.60;;;;;;4905696;29;20076;-60
2023/05/20 02:40:55;;;;;;;29.90;15.10;;;32.60;45.80;;;;;;4907998;29;20030;-61
2023/05/20 02:43:22;;;;;;;43.03;25.38;;;32.50;45.70;;;;;;4906833;29;20041;-60
2023/05/20 02:45:48;;;;;;;33.97;6.00;;;32.50;45.60;;;;;;4907107;29;20031;-61
2023/05/20 02:48:15;;;;;;;13.88;3.33;;;32.40;45.90;;;;;;4909986;29;20038;-63
2023/05/20 02:50:41;;;;;;;22.55;6.80;;;32.30;45.50;;;;;;4908979;29;20038;-60
2023/05/20 02:53:07;;;;;;;16.48;3.90;;;32.20;45.60;;;;;;4907235;29;20038;-61
2023/05/20 02:55:35;;;;;;;17.45;3.00;;;32.10;45.60;;;;;;4907813;29;20049;-65
2023/05/20 02:58:01;;;;;;;17.42;4.47;;;32.00;45.80;;;;;;4909415;29;20034;-56
2023/05/20 03:00:30;;;;;;;22.40;3.25;;;32.00;46.60;;;;;;4906898;29;20071;-60
2023/05/20 03:02:57;;;;;;;28.77;6.63;;;31.80;46.50;;;;;;4907921;29;20043;-60
2023/05/20 03:05:24;;;;;;;15.20;4.88;;;31.70;46.80;;;;;;4906769;29;20066;-62
2023/05/20 03:07:50;;;;;;;17.10;3.70;;;31.70;47.20;;;;;;4907069;29;20137;-62
2023/05/20 03:10:17;;;;;;;16.55;4.28;;;31.60;47.40;;;;;;4905442;29;20037;-61
2023/05/20 03:12:43;;;;;;;13.13;4.35;;;31.50;47.50;;;;;;4908234;29;20392;-63
2023/05/20 03:15:11;;;;;;;21.58;4.10;;;31.50;47.80;;;;;;4908404;29;20043;-60
2023/05/20 03:17:37;;;;;;;18.38;3.88;;;31.40;48.30;;;;;;4907653;29;20178;-63
2023/05/20 03:20:05;;;;;;;15.88;3.20;;;31.30;48.50;;;;;;4906318;29;20396;-59
2023/05/20 03:22:32;;;;;;;19.80;4.78;;;31.30;48.60;;;;;;4906897;29;20089;-61
2023/05/20 03:24:59;;;;;;;22.42;3.38;;;31.20;48.70;;;;;;4905550;29;20381;-61
2023/05/20 03:27:26;;;;;;;17.98;4.13;;;31.10;49.10;;;;;;4906122;29;20052;-61
2023/05/20 03:29:56;;;;;;;21.15;3.95;;;31.00;49.30;;;;;;4903880;29;20048;-61
2023/05/20 03:32:22;;;;;;;15.60;5.03;;;31.00;49.60;;;;;;4903702;29;20151;-64
2023/05/20 03:34:48;;;;;;;28.17;3.65;;;30.90;49.90;;;;;;4908658;29;20040;-59
2023/05/20 03:37:15;;;;;;;31.65;7.18;;;30.80;50.10;;;;;;4907896;29;20092;-61
2023/05/20 03:39:41;;;;;;;17.52;3.53;;;30.70;50.00;;;;;;4906955;29;20054;-59
2023/05/20 03:42:08;;;;;;;21.67;3.63;;;30.70;50.10;;;;;;4907613;29;20045;-59
2023/05/20 03:44:34;;;;;;;20.98;5.53;;;30.70;50.40;;;;;;4907427;29;20050;-59
2023/05/20 03:47:01;;;;;;;13.15;3.08;;;30.60;50.50;;;;;;4907743;29;20050;-57
2023/05/20 03:49:27;;;;;;;18.50;3.55;;;30.50;51.30;;;;;;4907911;29;20052;-58
2023/05/20 03:51:53;;;;;;;21.95;4.65;;;30.40;51.20;;;;;;4907563;29;20073;-59
2023/05/20 03:54:20;;;;;;;20.17;3.60;;;30.40;51.60;;;;;;4909356;29;20175;-58
2023/05/20 03:56:48;;;;;;;22.73;3.17;;;30.30;51.80;;;;;;4909710;29;20936;-61
2023/05/20 03:59:14;;;;;;;22.30;3.03;;;30.30;52.00;;;;;;4905652;29;20538;-66
2023/05/20 04:01:41;;;;;;;30.15;4.78;;;30.20;52.30;;;;;;4908646;29;20137;-64
2023/05/20 04:04:07;;;;;;;28.77;4.72;;;30.10;52.60;;;;;;4905383;29;20066;-62
2023/05/20 04:06:34;;;;;;;39.30;5.20;;;30.00;52.60;;;;;;4907584;29;20053;-65
2023/05/20 04:09:01;;;;;;;17.67;4.28;;;30.00;52.70;;;;;;4906487;29;20569;-64
2023/05/20 04:11:28;;;;;;;15.43;2.90;;;30.00;52.70;;;;;;4909589;29;20504;-63
2023/05/20 04:13:55;;;;;;;19.08;3.03;;;29.90;52.70;;;;;;4907525;29;20540;-64
2023/05/20 04:16:21;;;;;;;18.77;3.33;;;29.80;53.30;;;;;;4908195;29;20056;-63
2023/05/20 04:18:47;;;;;;;17.77;3.35;;;29.80;52.90;;;;;;4905699;29;20072;-63
2023/05/20 04:21:14;;;;;;;15.98;3.40;;;29.70;53.10;;;;;;4904987;29;20044;-62
2023/05/20 04:23:40;;;;;;;11.68;3.10;;;29.60;53.20;;;;;;4909696;29;20108;-63
2023/05/20 04:26:07;;;;;;;17.95;3.22;;;29.60;53.30;;;;;;4907469;29;20382;-64
2023/05/20 04:28:33;;;;;;;14.77;3.80;;;29.50;53.40;;;;;;4907430;29;20044;-63
2023/05/20 04:31:03;;;;;;;13.95;4.15;;;29.50;53.50;;;;;;4904527;29;20545;-64
2023/05/20 04:33:31;;;;;;;28.45;4.75;;;29.40;53.30;;;;;;4903543;29;20458;-63
2023/05/20 04:35:58;;;;;;;28.15;5.72;;;29.40;53.30;;;;;;4909206;29;20058;-63
2023/05/20 04:38:28;;;;;;;27.95;7.95;;;29.30;53.30;;;;;;4908632;29;20054;-62
2023/05/20 04:40:58;;;;;;;28.70;8.13;;;29.20;53.40;;;;;;4907678;29;20049;-65
2023/05/20 04:43:28;;;;;;;25.08;8.52;;;29.20;53.40;;;;;;4914764;29;20059;-63
2023/05/20 04:45:56;;;;;;;28.95;6.45;;;29.20;53.40;;;;;;4911994;29;20094;-62
2023/05/20 04:48:23;;;;;;;26.35;5.72;;;29.20;53.10;;;;;;4910272;29;20528;-62
2023/05/20 04:50:50;;;;;;;23.45;5.72;;;29.10;53.20;;;;;;4913210;29;20526;-62
2023/05/20 04:53:17;;;;;;;20.85;5.78;;;29.00;53.40;;;;;;4911390;29;20064;-62
2023/05/20 04:55:45;;;;;;;21.23;6.93;;;29.10;53.70;;;;;;4909717;29;20153;-60
2023/05/20 04:58:14;;;;;;;35.95;7.18;;;29.00;53.80;;;;;;4909524;29;20152;-62
2023/05/20 05:00:44;;;;;;;30.13;8.00;;;28.90;53.60;;;;;;4913461;29;20513;-65
2023/05/20 05:03:12;;;;;;;27.77;8.48;;;28.90;53.50;;;;;;4911574;29;20077;-61
2023/05/20 05:05:39;;;;;;;25.10;9.65;;;28.90;54.00;;;;;;4911338;29;20060;-68
2023/05/20 05:08:06;;;;;;;29.25;9.05;;;28.80;54.10;;;;;;4909560;29;20050;-66
2023/05/20 05:10:33;;;;;;;28.73;7.70;;;28.80;53.90;;;;;;4908767;29;20133;-66
2023/05/20 05:12:59;;;;;;;23.02;6.05;;;28.80;53.80;;;;;;4911169;29;20461;-65
2023/05/20 05:15:26;;;;;;;19.88;4.97;;;28.70;53.90;;;;;;4908106;29;20060;-65
2023/05/20 05:17:53;;;;;;;19.27;4.82;;;28.70;54.10;;;;;;4911042;29;20145;-66
2023/05/20 05:20:20;;;;;;;20.30;6.22;;;28.70;54.20;;;;;;4910043;29;20068;-65
2023/05/20 05:22:46;;;;;;;20.90;5.40;;;28.60;54.30;;;;;;4913351;29;20490;-65
2023/05/20 05:25:13;;;;;;;26.45;5.47;;;28.70;54.60;;;;;;4909687;29;20067;-65
2023/05/20 05:27:39;;;;;;;23.35;3.72;;;28.60;54.80;;;;;;4908206;29;20044;-68
2023/05/20 05:30:06;;;;;;;18.77;3.65;;;28.50;55.30;;;;;;4912572;29;20087;-66
2023/05/20 05:32:33;;;;;;;18.73;2.85;;;28.50;56.00;;;;;;4901418;29;20401;-65
2023/05/20 05:35:00;;;;;;;15.85;2.90;;;28.40;56.30;;;;;;4908343;29;20077;-66
2023/05/20 05:37:26;;;;;;;15.10;3.08;;;28.30;56.50;;;;;;4909793;29;20548;-66
2023/05/20 05:39:53;;;;;;;15.88;3.17;;;28.30;56.50;;;;;;4909737;29;20069;-65
2023/05/20 05:42:19;;;;;;;13.52;2.78;;;28.40;56.50;;;;;;4910503;29;20550;-66
2023/05/20 05:44:46;;;;;;;21.08;3.72;;;28.30;56.30;;;;;;4910180;29;20097;-65
2023/05/20 05:47:12;;;;;;;14.68;3.45;;;28.30;56.30;;;;;;4909423;29;20087;-64
2023/05/20 05:49:39;;;;;;;14.65;3.42;;;28.20;56.80;;;;;;4912657;29;20069;-65
2023/05/20 05:52:05;;;;;;;12.43;3.38;;;28.20;57.20;;;;;;4910525;29;20142;-65
2023/05/20 05:54:32;;;;;;;20.60;3.90;;;28.20;57.60;;;;;;4910048;29;20141;-64
2023/05/20 05:56:58;;;;;;;17.23;4.18;;;28.10;58.30;;;;;;4908577;29;20123;-67
2023/05/20 05:59:25;;;;;;;15.35;3.42;;;28.00;58.70;;;;;;4913614;29;20070;-67
2023/05/20 06:01:51;;;;;;;14.40;3.45;;;28.00;58.80;;;;;;4910325;29;20118;-66
2023/05/20 06:04:17;;;;;;;11.90;3.17;;;27.90;59.10;;;;;;4906864;29;20054;-67
2023/05/20 06:06:44;;;;;;;15.73;3.90;;;27.90;59.20;;;;;;4909078;29;20154;-65
2023/05/20 06:09:10;;;;;;;20.77;3.70;;;27.90;59.60;;;;;;4910164;29;20555;-65
2023/05/20 06:11:37;;;;;;;24.48;4.13;;;27.80;60.50;;;;;;4910092;29;20768;-66
2023/05/20 06:14:03;;;;;;;22.00;4.03;;;27.70;61.10;;;;;;4908034;29;20160;-66
2023/05/20 06:16:29;;;;;;;41.95;5.10;;;27.60;62.00;;;;;;4905709;29;20118;-66
2023/05/20 06:18:56;;;;;;;24.95;4.38;;;27.60;62.50;;;;;;4904848;29;20071;-65
2023/05/20 06:21:23;;;;;;;19.98;3.80;;;27.60;62.80;;;;;;4906483;29;20076;-65
2023/05/20 06:23:49;;;;;;;32.83;5.30;;;27.50;62.90;;;;;;4904524;29;20121;-68
2023/05/20 06:26:16;;;;;;;22.95;4.18;;;27.50;63.30;;;;;;4906376;29;20069;-65
2023/05/20 06:28:42;;;;;;;23.45;4.50;;;27.50;63.90;;;;;;4903217;29;20051;-66
2023/05/20 06:31:08;;;;;;;52.05;4.43;;;27.50;64.90;;;;;;4903760;29;20059;-64
2023/05/20 06:33:35;;;;;;;19.33;4.00;;;27.40;66.00;;;;;;4900225;29;20502;-66
2023/05/20 06:36:02;;;;;;;20.45;4.38;;;27.30;66.90;;;;;;4902311;29;20498;-66
2023/05/20 06:38:28;;;;;;;17.02;3.88;;;27.20;67.70;;;;;;4909716;29;20107;-65
2023/05/20 06:40:54;;;;;;;22.85;5.15;;;27.20;68.50;;;;;;4909144;29;20080;-65
2023/05/20 06:43:21;;;;;;;16.02;5.05;;;27.10;69.00;;;;;;4908072;29;20480;-65
2023/05/20 06:45:49;;;;;;;28.50;5.78;;;27.10;70.20;;;;;;4907494;29;20056;-65
2023/05/20 06:48:15;;;;;;;18.33;4.60;;;26.90;72.40;;;;;;4909051;29;20154;-63
2023/05/20 06:50:43;;;;;;;23.40;4.82;;;26.80;73.70;;;;;;4905854;29;20535;-65
2023/05/20 06:53:10;;;;;;;19.25;4.90;;;26.70;74.60;;;;;;4906404;29;20737;-65
2023/05/20 06:55:37;;;;;;;18.08;5.00;;;26.60;75.10;;;;;;4907307;29;20071;-64
2023/05/20 06:58:05;;;;;;;16.98;4.90;;;26.50;76.30;;;;;;4909742;29;20647;-65
2023/05/20 07:00:31;;;;;;;28.85;4.88;;;26.50;77.60;;;;;;4908196;29;20614;-64
2023/05/20 07:02:57;;;;;;;22.88;5.30;;;26.50;78.70;;;;;;4907659;29;20074;-66
2023/05/20 07:05:24;;;;;;;20.90;5.15;;;26.40;79.70;;;;;;4907866;29;20111;-66
2023/05/20 07:07:51;;;;;;;20.70;4.30;;;26.30;81.00;;;;;;4908676;29;20459;-65
2023/05/20 07:10:17;;;;;;;20.52;4.75;;;26.10;83.40;;;;;;4907056;29;20091;-67
2023/05/20 07:12:43;;;;;;;22.80;4.88;;;26.10;85.70;;;;;;4908697;29;20063;-66
2023/05/20 07:15:10;;;;;;;24.48;4.57;;;26.00;87.10;;;;;;4905280;29;20062;-65
2023/05/20 07:17:37;;;;;;;22.65;5.03;;;26.00;87.80;;;;;;4906587;29;20069;-65
2023/05/20 07:20:05;;;;;;;16.60;4.15;;;26.00;88.40;;;;;;4908307;29;20076;-68
2023/05/20 07:22:33;;;;;;;22.02;4.43;;;25.80;88.90;;;;;;4908152;29;20107;-63
2023/05/20 07:25:00;;;;;;;19.42;4.40;;;25.90;89.20;;;;;;4904233;29;20149;-65
2023/05/20 07:27:26;;;;;;;15.60;4.05;;;25.80;89.50;;;;;;4903731;29;20070;-65
2023/05/20 07:29:53;;;;;;;20.95;4.93;;;25.90;89.40;;;;;;4905463;29;20543;-62
2023/05/20 07:32:19;;;;;;;12.82;3.92;;;26.10;88.70;;;;;;4902095;29;20074;-63
2023/05/20 07:34:45;;;;;;;16.65;3.67;;;26.50;86.20;;;;;;4895717;29;20154;-61
2023/05/20 07:37:12;;;;;;;16.95;3.88;;;26.80;83.80;;;;;;4902598;29;20866;-64
2023/05/20 07:39:38;;;;;;;16.67;3.72;;;26.90;82.00;;;;;;4901894;29;20082;-64
2023/05/20 07:42:05;;;;;;;18.77;3.63;;;26.80;81.40;;;;;;4903834;29;20073;-62
2023/05/20 07:44:31;;;;;;;14.65;4.30;;;26.80;79.70;;;;;;4902005;29;20067;-61
2023/05/20 07:46:58;;;;;;;16.67;3.97;;;26.80;78.20;;;;;;4904075;29;20078;-63
2023/05/20 07:49:25;;;;;;;19.02;3.75;;;26.90;77.70;;;;;;4904586;29;20076;-62
2023/05/20 07:51:51;;;;;;;18.42;3.80;;;26.80;77.60;;;;;;4904120;29;20075;-63
2023/05/20 07:54:18;;;;;;;19.15;3.58;;;26.80;77.00;;;;;;4901411;29;20061;-64
2023/05/20 07:56:44;;;;;;;17.40;4.00;;;26.90;76.30;;;;;;4903308;29;20148;-64
2023/05/20 07:59:10;;;;;;;19.75;3.58;;;26.80;76.20;;;;;;4902275;29;20766;-62
2023/05/20 08:01:38;;;;;;;20.23;3.38;;;26.90;75.50;;;;;;4903236;29;20072;-63
2023/05/20 08:04:04;;;;;;;18.60;3.28;;;26.60;75.60;;;;;;4903506;29;20094;-64
2023/05/20 08:06:31;;;;;;;24.02;3.50;;;26.60;75.20;;;;;;4901729;29;20068;-63
2023/05/20 08:08:57;;;;;;;18.13;3.65;;;26.70;74.20;;;;;;4905956;29;20591;-62
2023/05/20 08:11:24;;;;;;;15.20;3.78;;;26.60;73.70;;;;;;4903315;29;20148;-63
2023/05/20 08:13:50;;;;;;;17.98;4.07;;;26.50;73.30;;;;;;4906080;29;20468;-61
2023/05/20 08:16:17;;;;;;;33.95;3.78;;;26.40;73.70;;;;;;4908456;29;20065;-62
2023/05/20 08:18:43;;;;;;;17.10;3.65;;;26.30;73.30;;;;;;4907782;29;20089;-64
2023/05/20 08:21:09;;;;;;;16.27;3.83;;;26.40;72.80;;;;;;4906966;29;20065;-62
2023/05/20 08:23:36;;;;;;;13.38;4.05;;;26.40;72.60;;;;;;4910329;29;20614;-61
2023/05/20 08:26:03;;;;;;;24.30;7.25;;;26.40;72.00;;;;;;4905961;29;20060;-63
2023/05/20 08:28:30;;;;;;;27.00;8.13;;;26.30;72.30;;;;;;4904724;29;20525;-62
2023/05/20 08:30:59;;;;;;;17.00;4.95;;;26.40;72.50;;;;;;4908112;29;20083;-61
2023/05/20 08:33:25;;;;;;;19.73;5.15;;;26.40;72.50;;;;;;4909305;29;20063;-62
2023/05/20 08:35:52;;;;;;;16.80;3.95;;;26.40;72.60;;;;;;4898945;29;20514;-62
2023/05/20 08:38:18;;;;;;;13.02;3.15;;;26.40;72.70;;;;;;4910212;29;20067;-64
2023/05/20 08:40:50;;;;;;;12.63;3.03;;;26.30;73.10;;;;;;4909722;29;20076;-64
2023/05/20 08:43:17;;;;;;;15.27;3.20;;;26.20;73.30;;;;;;4910418;29;20058;-63
2023/05/20 08:45:43;;;;;;;12.02;3.60;;;26.20;73.80;;;;;;4909910;29;20522;-63
2023/05/20 08:48:10;;;;;;;11.80;4.05;;;26.10;74.00;;;;;;4907152;29;20124;-63
2023/05/20 08:50:38;;;;;;;11.63;4.13;;;26.10;74.70;;;;;;4905931;29;20990;-62
2023/05/20 08:53:04;;;;;;;14.00;3.33;;;26.00;74.80;;;;;;4907882;29;20066;-63
2023/05/20 08:55:41;;;;;;;16.50;3.92;;;26.00;75.00;;;;;;4907501;29;20078;-64
2023/05/20 08:58:08;;;;;;;18.00;3.60;;;25.90;75.30;;;;;;4905024;29;20101;-62
2023/05/20 09:00:36;;;;;;;18.05;4.22;;;25.80;75.90;;;;;;4909209;29;20179;-63
2023/05/20 09:03:03;;;;;;;14.05;3.72;;;25.80;76.30;;;;;;4906157;29;20199;-64
2023/05/20 09:05:29;;;;;;;13.10;4.05;;;25.80;77.00;;;;;;4905891;29;20071;-63
2023/05/20 09:08:09;;;;;;;25.42;4.45;;;25.80;77.30;;;;;;4904536;29;20431;-64
2023/05/20 09:10:37;;;;;;;17.80;4.18;;;25.90;77.20;;;;;;4905880;29;20069;-63
2023/05/20 09:13:06;;;;;;;28.83;4.57;;;25.80;77.80;;;;;;4904691;29;20152;-63
2023/05/20 09:15:33;;;;;;;15.15;4.00;;;25.70;78.40;;;;;;4907586;29;20102;-62
2023/05/20 09:18:01;;;;;;;17.40;4.03;;;25.80;78.00;;;;;;4908204;29;20060;-63
2023/05/20 09:20:30;;;;;;;27.05;3.92;;;25.80;78.10;;;;;;4910871;29;20073;-63
2023/05/20 09:23:08;;;;;;;18.75;3.50;;;25.80;78.10;;;;;;4909351;29;20103;-63
2023/05/20 09:25:36;;;;;;;17.30;3.80;;;25.70;78.40;;;;;;4906281;29;20066;-62
2023/05/20 09:28:06;;;;;;;19.70;3.65;;;25.60;78.40;;;;;;4908612;29;20066;-62
2023/05/20 09:30:32;;;;;;;17.75;3.88;;;25.60;78.90;;;;;;4908872;29;20075;-64
2023/05/20 09:33:00;;;;;;;10.82;2.97;;;25.70;78.40;;;;;;4905803;29;20107;-62
2023/05/20 09:35:27;;;;;;;13.98;3.70;;;25.70;78.50;;;;;;4903980;29;20136;-62
2023/05/20 09:37:56;;;;;;;12.88;3.10;;;25.70;78.20;;;;;;4901139;29;20531;-62
2023/05/20 09:40:27;;;;;;;21.50;3.50;;;25.60;78.40;;;;;;4908933;29;20140;-64
2023/05/20 09:43:04;;;;;;;10.88;2.72;;;25.70;78.10;;;;;;4910524;29;20118;-64
2023/05/20 09:45:30;;;;;;;11.02;3.35;;;25.60;77.80;;;;;;4910583;29;20427;-61
2023/05/20 09:47:58;;;;;;;16.50;3.63;;;25.70;78.10;;;;;;4910277;29;20076;-64
2023/05/20 09:50:25;;;;;;;28.80;3.95;;;25.70;78.10;;;;;;4908039;29;20059;-61
2023/05/20 09:52:52;;;;;;;17.05;4.25;;;25.70;77.90;;;;;;4906551;29;20160;-65
2023/05/20 09:55:21;;;;;;;22.95;3.58;;;25.60;77.10;;;;;;4911977;29;20075;-62
2023/05/20 09:57:47;;;;;;;16.05;3.45;;;25.50;77.10;;;;;;4912603;29;20557;-64
2023/05/20 10:00:18;;;;;;;18.92;3.78;;;25.50;78.10;;;;;;4910235;29;20092;-64
2023/05/20 10:02:52;;;;;;;26.23;8.77;;;25.50;77.50;;;;;;4909178;29;20065;-63
2023/05/20 10:05:20;;;;;;;28.80;11.07;;;25.40;77.30;;;;;;4908872;29;20072;-64
2023/05/20 10:08:17;;;;;;;25.58;10.30;;;25.60;76.30;;;;;;4907744;29;20513;-64
2023/05/20 10:10:47;;;;;;;28.42;9.95;;;25.70;76.30;;;;;;4909398;29;20500;-63
2023/05/20 10:13:58;;;;;;;26.33;6.53;;;25.60;76.50;;;;;;4907989;29;20432;-62
2023/05/20 10:16:36;;;;;;;15.82;5.18;;;25.70;76.40;;;;;;4906108;29;20576;-62
2023/05/20 10:19:24;;;;;;;14.07;4.30;;;25.60;76.20;;;;;;4907798;29;20139;-64
2023/05/20 10:22:13;;;;;;;15.38;3.88;;;25.60;76.50;;;;;;4908350;29;20453;-63
2023/05/20 10:24:42;;;;;;;15.52;4.15;;;25.70;76.30;;;;;;4908523;29;20108;-63
2023/05/20 10:27:16;;;;;;;15.73;4.20;;;25.60;77.60;;;;;;4909542;29;20088;-64
2023/05/20 10:29:50;;;;;;;13.50;3.55;;;25.50;77.40;;;;;;4912574;29;20063;-64
2023/05/20 10:32:33;;;;;;;19.13;4.18;;;25.60;77.40;;;;;;4907626;29;20164;-64
2023/05/20 10:35:03;;;;;;;21.35;3.92;;;25.40;76.30;;;;;;4907810;29;20154;-65
2023/05/20 10:37:32;;;;;;;13.93;3.25;;;25.30;76.10;;;;;;4900089;29;20072;-63
2023/05/20 10:40:06;;;;;;;13.57;3.10;;;25.50;77.30;;;;;;4906437;29;20146;-62
2023/05/20 10:42:33;;;;;;;14.50;3.85;;;25.50;76.30;;;;;;4908526;29;20075;-64
2023/05/20 10:45:00;;;;;;;10.35;3.80;;;25.50;76.40;;;;;;4908491;29;20527;-64
2023/05/20 10:47:26;;;;;;;17.85;4.07;;;25.40;75.60;;;;;;4909132;29;20450;-65
2023/05/20 10:49:52;;;;;;;11.55;3.22;;;25.40;75.20;;;;;;4910892;29;20072;-63
2023/05/20 10:52:19;;;;;;;11.85;3.30;;;25.30;75.50;;;;;;4908248;29;20113;-65
2023/05/20 10:54:56;;;;;;;14.68;3.70;;;25.40;76.20;;;;;;4907413;29;20083;-65
2023/05/20 10:57:25;;;;;;;13.82;3.30;;;25.30;75.70;;;;;;4908982;29;20069;-62
2023/05/20 10:59:52;;;;;;;9.75;2.78;;;25.40;75.30;;;;;;4913681;29;20506;-62
2023/05/20 11:02:25;;;;;;;19.75;3.70;;;25.50;74.80;;;;;;4907992;29;20090;-63
2023/05/20 11:04:52;;;;;;;14.75;3.17;;;25.60;74.60;;;;;;4907553;29;20117;-64
2023/05/20 11:07:28;;;;;;;12.98;3.22;;;25.60;74.30;;;;;;4908682;29;20151;-62
2023/05/20 11:09:55;;;;;;;;;;;25.60;74.40;;;;;;4909598;29;20067;-62
2023/05/20 11:12:23;;;;;;;19.10;4.43;;;25.50;74.70;;;;;;4908407;29;20042;-65
2023/05/20 11:14:50;;;;;;;15.27;4.20;;;25.50;75.30;;;;;;4909009;29;20308;-65
2023/05/20 11:17:17;;;;;;;11.63;4.30;;;25.40;75.50;;;;;;4908620;29;20121;-65
2023/05/20 11:19:44;;;;;;;13.85;5.13;;;25.30;76.20;;;;;;4906620;29;20069;-64
2023/05/20 11:22:10;;;;;;;19.42;5.03;;;25.30;76.80;;;;;;4909159;29;20986;-64
2023/05/20 11:24:37;;;;;;;23.58;5.72;;;25.10;78.50;;;;;;4908369;29;20129;-63
2023/05/20 11:27:04;;;;;;;21.75;5.78;;;25.10;79.40;;;;;;4909097;29;20072;-64
2023/05/20 11:29:31;;;;;;;20.48;5.45;;;25.10;78.20;;;;;;4907465;29;20082;-63
2023/05/20 11:31:59;;;;;;;24.40;5.85;;;25.20;78.00;;;;;;4910093;29;20108;-64
2023/05/20 11:34:31;;;;;;;29.13;5.80;;;25.20;77.40;;;;;;4906565;29;20069;-64
2023/05/20 11:36:58;;;;;;;16.33;5.07;;;25.30;77.60;;;;;;4906483;29;20088;-64
2023/05/20 11:39:28;;;;;;;23.35;5.68;;;25.30;77.30;;;;;;4902844;29;20086;-65
2023/05/20 11:41:55;;;;;;;18.33;5.00;;;25.30;78.10;;;;;;4907452;29;20432;-63
2023/05/20 11:44:21;;;;;;;20.88;5.20;;;25.30;77.40;;;;;;4909646;29;20087;-65
2023/05/20 11:46:48;;;;;;;44.78;5.55;;;25.40;77.70;;;;;;4909411;29;20556;-63
2023/05/20 11:49:15;;;;;;;14.02;4.53;;;25.40;77.30;;;;;;4913481;29;20148;-64
2023/05/20 11:51:43;;;;;;;19.48;5.10;;;25.40;77.20;;;;;;4911971;29;20425;-63
2023/05/20 11:54:10;;;;;;;20.08;4.25;;;25.30;77.60;;;;;;4912366;29;20091;-65
2023/05/20 11:56:39;;;;;;;17.65;4.82;;;25.30;77.70;;;;;;4915651;29;20073;-63
2023/05/20 11:59:07;;;;;;;16.48;4.63;;;25.30;78.00;;;;;;4910411;29;20129;-64
2023/05/20 12:01:42;;;;;;;17.90;4.82;;;25.30;77.90;;;;;;4911376;29;20090;-64
2023/05/20 12:04:09;;;;;;;14.05;3.78;;;25.40;78.40;;;;;;4909944;29;20072;-62
2023/05/20 12:06:36;;;;;;;14.00;2.92;;;25.20;78.80;;;;;;4912908;29;20075;-63
2023/05/20 12:09:07;;;;;;;17.65;3.17;;;25.20;78.90;;;;;;4912530;29;20064;-63
2023/05/20 12:11:35;;;;;;;14.15;3.40;;;25.10;79.40;;;;;;4911725;29;20072;-63
2023/05/20 12:14:05;;;;;;;14.35;3.35;;;25.00;80.70;;;;;;4911982;29;20115;-64
2023/05/20 12:16:33;;;;;;;12.05;3.30;;;24.90;81.60;;;;;;4909821;29;20084;-63
2023/05/20 12:18:59;;;;;;;13.38;3.38;;;24.80;81.40;;;;;;4911796;29;20063;-63
2023/05/20 12:21:27;;;;;;;9.85;2.85;;;24.70;81.40;;;;;;4912224;29;20070;-63
2023/05/20 12:23:56;;;;;;;11.77;3.95;;;24.80;81.30;;;;;;4911497;29;20107;-64
2023/05/20 12:26:27;;;;;;;17.60;3.25;;;24.80;80.40;;;;;;4912170;29;20062;-62
2023/05/20 12:28:54;;;;;;;16.30;3.53;;;24.90;80.00;;;;;;4911873;29;20092;-63
2023/05/20 12:31:21;;;;;;;13.50;3.33;;;24.80;80.10;;;;;;4912135;29;20219;-62
2023/05/20 12:33:47;;;;;;;23.13;3.30;;;24.80;80.30;;;;;;4910823;29;20144;-62
2023/05/20 12:36:14;;;;;;;16.90;3.70;;;24.80;80.50;;;;;;4912030;29;20511;-64
2023/05/20 12:38:40;;;;;;;13.32;3.10;;;24.80;80.00;;;;;;4905710;29;20157;-63
2023/05/20 12:41:07;;;;;;;21.83;3.35;;;24.90;79.90;;;;;;4903437;29;20455;-63